Welcome to our new website - Welkom op onze vernieuwde website - Bienvenue sur notre nouveau site web - Willkommen auf unserer neuen Website

U vindt ons ook hier:

Het Weer Aktueel



METAR rapporten vliegvelden

   
EHAM - Amsterdam/Schiph, Netherlands
Afstand tot: WNW 31 km
Gewijzigd: 27-05-2020 17:25
Licht bewolkt  
Licht bewolkt  
   Wind: NNW 16.7 km/h
Wind: NNW 16.7 km/h
Temperatuur: 17°C
Dauwpunt: 7°C
Vochtigheid: 52%
Barometer: 1034 hPa
Bewolking: Licht bewolkt
Zicht: meer dan 10 km
Bewolking: Licht bewolkt 4500 ft
EHAM 271525Z 34009KT 270V050 9999 FEW045 17/07 Q1034 NOSIG
EHDL - Deelen Rnlafb, Netherlands
Afstand tot: OZO 48 km
Gewijzigd: 27-05-2020 17:25
Helder  
Helder  
   Wind: NNW 18.5 km/h
Wind: NNW 18.5 km/h
Temperatuur: 21°C
Dauwpunt: 9°C
Vochtigheid: 46%
Barometer: 1032 hPa
Bewolking: Helder
Zicht: meer dan 10 km
Bewolking: Helder
EHDL 271525Z AUTO 34010KT 300V010 9999 NCD 21/09 Q1032 BLU
EHRD - Rotterdam Airpor, Netherlands
Afstand tot: WZW 56 km
Gewijzigd: 27-05-2020 17:25
Helder  
Helder  
   Wind: NNW 20.4 km/h
Wind: NNW 20.4 km/h
Temperatuur: 17°C
Dauwpunt: 10°C
Vochtigheid: 64%
Barometer: 1034 hPa
Bewolking: Helder
Zicht: meer dan 10 km
Bewolking: Helder
EHRD 271525Z AUTO 34011KT 290V030 9999 NCD 17/10 Q1034 NOSIG
EHGR - Gilze-Rijen Rnla, Netherlands
Afstand tot: ZZW 70 km
Gewijzigd: 27-05-2020 17:25
Helder  
Helder  
   Wind: Noorden 20.4 km/h
Wind: Noorden 20.4 km/h
Temperatuur: 22°C
Dauwpunt: 8°C
Vochtigheid: 41%
Barometer: 1033 hPa
Bewolking: Helder
Zicht: meer dan 10 km
Bewolking: Helder
EHGR 271525Z AUTO 36011KT 280V050 9999 NCD 22/08 Q1033 BLU
EHVK - Volkel Rnlafb, Netherlands
Afstand tot: ZZO 70 km
Gewijzigd: 27-05-2020 17:25
Helder  
Helder  
   Wind: NNW 14.8 km/h
Wind: NNW 14.8 km/h
Temperatuur: 22°C
Dauwpunt: 9°C
Vochtigheid: 44%
Barometer: 1032 hPa
Bewolking: Helder
Zicht: meer dan 10 km
Bewolking: Helder
EHVK 271525Z AUTO 34008KT 300V040 9999 NCD 22/09 Q1032 BLU
EHEH - Eindhoven Rnlafb, Netherlands
Afstand tot: Z 82 km
Gewijzigd: 27-05-2020 17:43
Helder  
Helder  
   Wind: Noorden 16.7 km/h
Wind: Noorden 16.7 km/h
Temperatuur: 22°C
Dauwpunt: 7°C
Vochtigheid: 38%
Barometer: 1032 hPa
Bewolking: Helder
Zicht: meer dan 10 km
Bewolking: Helder
EHEH 271543Z AUTO 35009KT 320V050 9999 NCD 22/07 Q1032 BLU
EHKD - De Kooy (navy), Netherlands
Afstand tot: NNW 87 km
Gewijzigd: 27-05-2020 17:25
Licht bewolkt  
Licht bewolkt  
   Wind: NNO 22.2 km/h
Wind: NNO 22.2 km/h
Temperatuur: 15°C
Dauwpunt: 9°C
Vochtigheid: 68%
Barometer: 1035 hPa
Bewolking: Licht bewolkt
Zicht: meer dan 10 km
Bewolking: Licht bewolkt 1900 ft
EHKD 271525Z AUTO 03012KT 360V080 9999 FEW019 15/09 Q1035 BLU 03007KT 9999 FEW018
EDLV - Niederrhein, Germany
Afstand tot: ZO 92 km
Gewijzigd: 26-05-2020 15:50
Verouderd
Helder  
Helder  
   Wind: NW 13 km/h
Wind: NW 13 km/h
Temperatuur: 22°C
Dauwpunt: 7°C
Vochtigheid: 38%
Barometer: 1034 hPa
Zicht: meer dan 10 km
Bewolking: Helder
EDLV 261350Z 32007KT CAVOK 22/07 Q1034
EHWO - Woensdrecht Rnla, Netherlands
Afstand tot: ZW 100 km
Gewijzigd: 27-05-2020 17:25
Helder  
Helder  
   Wind: Noorden 24.1 km/h
Wind: Noorden 24.1 km/h
Temperatuur: 21°C
Dauwpunt: 3°C
Vochtigheid: 31%
Barometer: 1033 hPa
Bewolking: Helder
Zicht: meer dan 10 km
Bewolking: Helder
EHWO 271525Z AUTO 36013KT 290V040 9999 NCD 21/03 Q1033 BLU

Script ontwikkeld door  Saratoga-weather.org Aangepast voor de template door  Weerstation Leuven

Apparatuur in gebruik:

Weerstation
Davis VP2

Weerprogramma
Meteobridge

Weercomputer
MB-Pro

Webleverancier
easyhosting

Davis VP2

Meteobridge

MB-Pro

easyhosting